Ana Sayfa
METAR-TAF:

METAR-TAF

Havaalanları :

Keene, New Hampshire, Amerika Birleşik Devletleri

Enlem: 42-54N, Boylam: 072-16W, yükseklik: 149 m

Güncel hava durumu gözlemi

Rapor saat 08:56 UTC de 35 dakika önce yapıldı.
Rüzgar güneydan 3 kt
Sıcaklık 14°C
Nem 94%
Basınç 1015 hPa
Görüş mesafesi: 14.5 km
9500 ft yükseklikte parçalı çok bulutlu

METAR: KEEN 180856Z AUTO 18003KT 9SM BKN095 14/13 A2998 RMK AO2 SLP154 6//// T01390133 58002 PNO $

Saat: 05:31 (09:31 UTC)


TAF: eksik

4.000'den fazla havaalanı için hava durumu gözlemleri ve tahminleri (METAR ve TAF raporları).

Kullanılabilir istasyonlar harita üzerinde sarı ve kırmızı noktalarla gösterilir.

İstasyonun adını görmek için fareyi noktanın üzerinde gezdirin.

Sonrasında hava gözlem ve tahminlerini görmek için tıklayın.

Haritayı değiştirmek için: yaklaştırmak için siyah artı işaretli yeşil düğmeye ve uzaklaştırmak için de eksi işaretli düğmeye hızla tıklayın; bitişik haritalar için yeşil okları kullanın.


METAR-TAF: